Time;durP1;ratioP1;P1;durP2;ratioP2;P2;SDS_P1;SDS_P2;PMS_P1;PMS_P2;Temp;Humidity;BMP_temperature;BMP_pressure;BME280_temperature;BME280_humidity;BME280_pressure;Samples;Min_cycle;Max_cycle;Signal;HPM_P1;HPM_P2
2022/05/08 00:02:12;;;;;;;8.07;5.30;;;;;;;12.11;78.40;102870.91;5025883;28;20043;-80
2022/05/08 00:04:38;;;;;;;7.70;5.07;;;;;;;12.15;77.80;102862.13;5042457;28;20029;-80
2022/05/08 00:07:03;;;;;;;12.75;5.68;;;;;;;12.07;77.38;102859.59;5059524;28;20033;-80
2022/05/08 00:09:29;;;;;;;12.35;5.20;;;;;;;11.99;77.45;102863.19;5060128;28;20045;-80
2022/05/08 00:11:54;;;;;;;10.95;6.25;;;;;;;11.94;77.77;102865.91;5060374;28;20082;-81
2022/05/08 00:14:20;;;;;;;8.23;4.65;;;;;;;11.99;77.55;102865.81;5058531;28;20033;-81
2022/05/08 00:16:46;;;;;;;7.75;4.40;;;;;;;11.97;77.48;102860.63;5059088;28;20337;-81
2022/05/08 00:19:11;;;;;;;7.43;4.40;;;;;;;11.93;77.41;102863.31;5059977;28;20048;-81
2022/05/08 00:21:39;;;;;;;10.35;5.28;;;;;;;11.86;77.38;102862.47;5060397;28;20229;-81
2022/05/08 00:24:05;;;;;;;9.60;5.18;;;;;;;11.78;77.81;102857.34;5059920;28;20083;-81
2022/05/08 00:26:30;;;;;;;12.68;5.28;;;;;;;11.74;78.47;102868.78;5041728;28;20036;-82
2022/05/08 00:28:56;;;;;;;10.73;5.55;;;;;;;11.74;78.45;102866.16;5041660;28;20345;-82
2022/05/08 00:31:21;;;;;;;8.25;5.05;;;;;;;11.71;78.37;102866.19;5059966;28;20082;-82
2022/05/08 00:33:46;;;;;;;15.10;5.63;;;;;;;11.71;78.12;102866.19;5041996;28;20049;-82
2022/05/08 00:36:12;;;;;;;7.22;5.10;;;;;;;11.74;77.48;102857.41;5059589;28;20044;-81
2022/05/08 00:38:38;;;;;;;11.68;4.80;;;;;;;11.70;76.59;102859.22;5059874;28;20040;-82
2022/05/08 00:41:04;;;;;;;9.55;4.68;;;;;;;11.66;75.91;102858.38;5058399;28;20048;-81
2022/05/08 00:43:33;;;;;;;9.88;4.55;;;;;;;11.64;75.93;102862.78;5059102;28;20037;-81
2022/05/08 00:46:06;;;;;;;12.23;4.40;;;;;;;11.64;75.78;102862.78;5058676;28;20276;-82
2022/05/08 00:48:33;;;;;;;14.23;4.78;;;;;;;11.62;75.89;102859.28;5059037;28;20098;-81
2022/05/08 00:51:00;;;;;;;6.97;4.05;;;;;;;11.63;75.64;102857.56;5058505;28;20393;-81
2022/05/08 00:53:27;;;;;;;12.77;5.25;;;;;;;11.61;75.64;102857.56;5058350;28;20493;-81
2022/05/08 00:55:55;;;;;;;9.10;4.22;;;;;;;11.58;75.92;102856.75;5058583;28;20039;-81
2022/05/08 00:58:20;;;;;;;17.02;5.05;;;;;;;11.60;76.05;102860.22;5057504;28;20048;-81
2022/05/08 01:04:08;;;;;;;7.47;4.63;;;;;;;11.69;75.56;102855.69;5055178;28;20434;-80
2022/05/08 01:06:33;;;;;;;15.15;5.05;;;;;;;11.60;75.49;102863.69;5041230;28;20029;-80
2022/05/08 01:08:59;;;;;;;13.27;4.55;;;;;;;11.60;75.59;102858.44;5058161;28;20033;-80
2022/05/08 01:11:24;;;;;;;10.48;4.03;;;;;;;11.61;75.75;102859.34;5057465;28;20229;-80
2022/05/08 01:13:50;;;;;;;12.50;4.40;;;;;;;11.61;75.51;102854.09;5059406;28;20037;-80
2022/05/08 01:16:21;;;;;;;11.82;5.22;;;;;;;11.63;75.86;102858.41;5057175;28;20316;-79
2022/05/08 01:18:48;;;;;;;10.50;4.15;;;;;;;11.66;75.51;102857.50;5058172;28;20044;-80
2022/05/08 01:21:16;;;;;;;7.90;4.55;;;;;;;11.68;75.74;102855.75;5056511;28;20025;-80
2022/05/08 01:23:42;;;;;;;8.85;4.47;;;;;;;11.67;75.78;102854.84;5057681;28;20352;-80
2022/05/08 01:26:08;;;;;;;13.68;4.93;;;;;;;11.67;75.55;102854.84;5056537;28;20079;-80
2022/05/08 01:28:34;;;;;;;16.30;4.93;;;;;;;11.60;75.57;102855.81;5057444;28;20040;-79
2022/05/08 01:31:00;;;;;;;15.82;5.20;;;;;;;11.60;75.57;102861.06;5056521;28;20040;-80
2022/05/08 01:33:26;;;;;;;12.75;5.18;;;;;;;11.50;76.01;102862.09;5055847;28;20107;-80
2022/05/08 01:35:52;;;;;;;10.85;4.88;;;;;;;11.46;76.13;102860.38;5056443;28;20032;-80
2022/05/08 01:38:21;;;;;;;13.05;4.72;;;;;;;11.42;76.29;102856.06;5057401;28;20115;-79
2022/05/08 01:40:47;;;;;;;;;;;;;;;11.46;76.25;102861.25;5056922;28;20033;-80
2022/05/08 01:43:13;;;;;;;13.25;4.18;;;;;;;11.50;76.13;102862.09;5039388;28;20106;-80
2022/05/08 01:45:39;;;;;;;20.75;5.43;;;;;;;11.41;75.81;102867.44;5057259;28;20104;-80
2022/05/08 01:48:25;;;;;;;12.55;4.72;;;;;;;11.37;76.06;102861.38;5056608;28;20044;-80
2022/05/08 01:50:53;;;;;;;11.60;3.97;;;;;;;11.39;76.18;102861.31;5056384;28;20055;-81
2022/05/08 01:53:19;;;;;;;9.80;3.95;;;;;;;11.42;76.16;102858.69;5056009;28;20064;-81
2022/05/08 01:55:47;;;;;;;14.93;4.90;;;;;;;11.32;76.27;102863.19;5056953;28;20024;-80
2022/05/08 01:58:12;;;;;;;11.68;4.72;;;;;;;11.31;76.26;102864.94;5056253;28;20064;-80
2022/05/08 02:00:38;;;;;;;7.70;3.90;;;;;;;11.34;76.23;102866.66;5039367;28;20025;-80
2022/05/08 02:03:04;;;;;;;18.25;4.75;;;;;;;11.31;76.45;102869.28;5057374;28;20263;-80
2022/05/08 02:05:31;;;;;;;11.10;4.47;;;;;;;11.28;76.43;102869.34;5055427;28;20059;-81
2022/05/08 02:07:56;;;;;;;11.55;4.63;;;;;;;11.25;76.51;102872.84;5056047;28;20044;-80
2022/05/08 02:10:22;;;;;;;18.10;5.63;;;;;;;11.15;76.53;102871.22;5055380;28;20341;-80
2022/05/08 02:12:48;;;;;;;14.52;4.32;;;;;;;11.08;76.84;102870.44;5056123;28;20091;-80
2022/05/08 02:15:16;;;;;;;15.13;5.55;;;;;;;11.00;76.95;102867.00;5057146;28;20055;-80
2022/05/08 02:17:42;;;;;;;13.38;4.85;;;;;;;10.92;77.48;102872.31;5055810;28;20040;-80
2022/05/08 02:20:08;;;;;;;13.57;4.53;;;;;;;10.83;78.12;102872.41;5055977;28;20036;-80
2022/05/08 02:22:35;;;;;;;13.73;4.65;;;;;;;10.79;78.17;102870.72;5022431;28;20021;-80
2022/05/08 02:25:00;;;;;;;13.02;4.57;;;;;;;10.71;78.46;102880.38;5039694;28;20363;-80
2022/05/08 02:27:33;;;;;;;9.32;4.50;;;;;;;10.70;78.24;102869.03;5055177;28;20028;-80
2022/05/08 02:29:59;;;;;;;14.38;4.60;;;;;;;10.63;78.87;102869.09;5056997;28;20104;-80
2022/05/08 02:32:24;;;;;;;12.45;4.57;;;;;;;10.64;78.68;102873.44;5038929;28;20032;-80
2022/05/08 02:34:49;;;;;;;16.13;4.90;;;;;;;10.59;78.94;102880.47;5055993;28;20270;-80
2022/05/08 02:37:15;;;;;;;13.15;4.60;;;;;;;10.62;78.76;102878.69;5055289;28;20223;-80
2022/05/08 02:39:41;;;;;;;14.65;4.97;;;;;;;10.63;78.54;102884.84;5055671;28;20367;-80
2022/05/08 02:42:06;;;;;;;17.65;5.18;;;;;;;10.57;78.24;102878.75;5055784;28;20228;-80
2022/05/08 02:44:32;;;;;;;10.98;4.15;;;;;;;10.56;78.29;102884.84;5038735;28;20517;-80
2022/05/08 02:46:57;;;;;;;14.10;4.43;;;;;;;10.46;78.67;102888.44;5055469;28;20170;-81
2022/05/08 02:49:22;;;;;;;16.27;4.68;;;;;;;10.46;78.50;102891.06;5055289;28;20044;-80
2022/05/08 02:51:49;;;;;;;11.35;4.32;;;;;;;10.48;78.44;102880.59;5038965;28;20029;-81
2022/05/08 02:54:14;;;;;;;15.15;4.63;;;;;;;10.39;79.00;102884.13;5055186;28;20035;-81
2022/05/08 02:59:23;;;;;;;14.32;4.63;;;;;;;10.28;78.83;102888.56;5070325;28;20575;-80
2022/05/08 03:01:49;;;;;;;12.93;4.88;;;;;;;10.12;79.45;102895.63;5042431;28;20024;-80
2022/05/08 03:04:14;;;;;;;15.10;4.78;;;;;;;10.13;79.59;102897.34;5058546;28;20036;-82
2022/05/08 03:06:40;;;;;;;16.15;3.92;;;;;;;10.12;79.58;102898.25;5042039;28;20040;-81
2022/05/08 03:09:05;;;;;;;11.60;4.25;;;;;;;10.14;79.38;102901.72;5045049;28;20040;-81
2022/05/08 03:11:32;;;;;;;11.00;4.22;;;;;;;10.10;79.07;102911.34;5045344;28;20029;-81
2022/05/08 03:13:59;;;;;;;12.55;3.90;;;;;;;10.12;78.80;102909.59;5062752;28;20324;-81
2022/05/08 03:16:27;;;;;;;19.88;5.03;;;;;;;10.05;78.74;102901.78;5079661;28;20530;-80
2022/05/08 03:18:53;;;;;;;15.80;3.55;;;;;;;10.07;78.50;102902.63;5062367;28;20039;-80
2022/05/08 03:21:19;;;;;;;17.02;4.53;;;;;;;9.99;78.20;102903.53;5080487;28;20328;-80
2022/05/08 03:23:46;;;;;;;14.25;3.47;;;;;;;9.93;78.32;102900.97;5045643;28;20024;-80
2022/05/08 03:26:14;;;;;;;13.63;3.10;;;;;;;9.91;78.10;102900.09;5080073;28;20063;-81
2022/05/08 03:28:41;;;;;;;14.55;3.65;;;;;;;9.92;77.90;102907.06;5045365;28;20044;-80
2022/05/08 03:31:07;;;;;;;20.02;3.72;;;;;;;9.90;78.07;102905.34;5057788;28;20071;-80
2022/05/08 03:33:34;;;;;;;14.35;3.20;;;;;;;9.89;77.81;102904.47;5061378;28;20036;-80
2022/05/08 03:36:00;;;;;;;16.85;3.35;;;;;;;9.92;77.30;102899.22;5061899;28;20020;-81
2022/05/08 03:38:27;;;;;;;15.95;2.75;;;;;;;9.88;77.51;102910.59;5061698;28;20332;-81
2022/05/08 03:40:53;;;;;;;23.83;3.17;;;;;;;9.90;77.21;102907.97;5080050;28;20035;-80
2022/05/08 03:43:19;;;;;;;20.48;3.13;;;;;;;9.87;76.82;102916.69;5028437;28;20036;-80
2022/05/08 03:45:44;;;;;;;14.02;3.45;;;;;;;9.86;76.86;102909.72;5079782;28;20233;-80
2022/05/08 03:48:09;;;;;;;21.42;3.83;;;;;;;9.86;76.91;102914.97;5062143;28;20036;-80
2022/05/08 03:50:35;;;;;;;18.92;3.13;;;;;;;9.80;76.93;102915.88;5044551;28;20153;-80
2022/05/08 03:53:04;;;;;;;19.35;3.30;;;;;;;9.65;77.00;102910.69;5079530;28;20036;-80
2022/05/08 03:55:29;;;;;;;13.50;3.00;;;;;;;9.66;76.82;102912.44;5061680;28;20032;-80
2022/05/08 03:57:55;;;;;;;14.05;3.25;;;;;;;9.63;76.79;102914.19;5079489;28;20032;-81
2022/05/08 04:00:20;;;;;;;11.85;3.13;;;;;;;9.67;77.00;102914.16;5061143;28;20021;-80
2022/05/08 04:02:46;;;;;;;12.73;2.78;;;;;;;9.66;76.68;102925.50;5061733;28;20208;-80
2022/05/08 04:05:12;;;;;;;16.98;3.38;;;;;;;9.62;76.87;102915.91;5061499;28;20067;-80
2022/05/08 04:07:38;;;;;;;21.50;3.45;;;;;;;9.56;76.90;102918.56;5079308;28;20056;-80
2022/05/08 04:10:04;;;;;;;16.25;2.70;;;;;;;9.59;76.69;102913.31;5061417;28;20037;-80
2022/05/08 04:12:30;;;;;;;12.73;2.80;;;;;;;9.55;76.96;102922.03;5079329;28;20262;-81
2022/05/08 04:14:55;;;;;;;17.63;3.03;;;;;;;9.43;77.47;102919.47;5079052;28;20400;-81
2022/05/08 04:17:20;;;;;;;34.08;5.10;;;;;;;9.39;77.51;102916.88;5078685;28;20047;-81
2022/05/08 04:19:49;;;;;;;15.73;2.85;;;;;;;9.38;77.46;102922.94;5079395;28;20036;-81
2022/05/08 04:24:59;;;;;;;25.25;3.45;;;;;;;9.40;77.32;102931.69;5063970;28;20085;-81
2022/05/08 04:27:24;;;;;;;11.32;2.97;;;;;;;9.28;77.18;102936.03;5078745;28;20334;-81
2022/05/08 04:29:50;;;;;;;12.85;2.80;;;;;;;9.37;77.15;102939.53;5060977;28;20040;-81
2022/05/08 04:32:16;;;;;;;13.90;2.88;;;;;;;9.37;77.06;102938.69;5078678;28;20059;-81
2022/05/08 04:34:41;;;;;;;12.65;2.65;;;;;;;9.43;77.02;102941.25;5078825;28;20032;-81
2022/05/08 04:37:06;;;;;;;22.27;3.15;;;;;;;9.44;77.19;102947.34;5044308;28;20239;-81
2022/05/08 04:39:32;;;;;;;14.10;3.10;;;;;;;9.50;76.51;102932.53;5060306;28;20032;-81
2022/05/08 04:41:59;;;;;;;13.52;3.13;;;;;;;9.46;76.84;102940.38;5078823;28;20035;-81
2022/05/08 04:44:24;;;;;;;16.45;3.03;;;;;;;9.40;76.73;102946.50;5060220;28;20266;-81
2022/05/08 04:46:50;;;;;;;17.92;3.15;;;;;;;9.39;77.08;102942.16;5078931;28;20028;-81
2022/05/08 04:49:15;;;;;;;19.45;3.20;;;;;;;9.33;76.73;102944.75;5060057;28;20035;-80
2022/05/08 04:51:41;;;;;;;12.38;2.67;;;;;;;9.27;77.28;102945.66;5078731;28;20036;-80
2022/05/08 04:54:06;;;;;;;17.40;3.22;;;;;;;9.31;77.22;102952.59;5044076;28;20359;-80
2022/05/08 04:56:32;;;;;;;16.13;3.50;;;;;;;9.25;77.31;102950.00;5060046;28;20029;-80
2022/05/08 04:58:57;;;;;;;16.88;3.47;;;;;;;9.20;77.13;102952.66;5078316;28;20053;-80
2022/05/08 05:01:23;;;;;;;19.52;3.03;;;;;;;9.17;77.30;102960.47;5060430;28;20032;-80
2022/05/08 05:03:50;;;;;;;16.27;3.03;;;;;;;9.19;77.42;102963.09;5060509;28;20092;-80
2022/05/08 05:06:15;;;;;;;20.30;3.13;;;;;;;9.21;77.16;102964.81;5077849;28;20063;-80
2022/05/08 05:08:41;;;;;;;18.40;3.10;;;;;;;9.18;77.07;102970.06;5078211;28;20059;-80
2022/05/08 05:11:08;;;;;;;19.63;3.40;;;;;;;9.17;77.25;102968.31;5060177;28;20044;-80
2022/05/08 05:13:38;;;;;;;15.80;3.08;;;;;;;9.16;77.21;102966.56;5059802;28;20237;-80
2022/05/08 05:16:04;;;;;;;19.48;3.33;;;;;;;9.16;77.22;102966.56;5060191;28;20082;-80
2022/05/08 05:18:30;;;;;;;19.13;2.78;;;;;;;9.18;77.30;102971.81;5059576;28;20063;-80
2022/05/08 05:20:55;;;;;;;21.13;3.88;;;;;;;9.16;77.02;102973.56;5077982;28;20032;-80
2022/05/08 05:23:21;;;;;;;18.75;3.60;;;;;;;9.15;76.72;102971.78;5042870;28;20036;-80
2022/05/08 05:25:46;;;;;;;19.38;3.40;;;;;;;9.18;77.14;102984.88;5059881;28;20059;-80
2022/05/08 05:28:11;;;;;;;20.48;3.35;;;;;;;9.20;76.59;102978.78;5077817;28;20043;-80
2022/05/08 05:30:37;;;;;;;24.83;3.83;;;;;;;9.21;76.57;102979.66;5077109;28;20032;-80
2022/05/08 05:33:03;;;;;;;15.98;2.95;;;;;;;9.17;76.23;102984.00;5077955;28;20039;-80
2022/05/08 05:35:28;;;;;;;12.30;3.35;;;;;;;9.18;76.33;102990.09;5058302;28;20033;-80
2022/05/08 05:37:54;;;;;;;16.50;3.53;;;;;;;9.21;76.80;102988.34;5056134;28;20086;-79
2022/05/08 05:40:20;;;;;;;14.68;2.63;;;;;;;9.20;76.49;102986.63;5055664;28;20020;-80
2022/05/08 05:42:46;;;;;;;15.43;2.95;;;;;;;9.23;76.38;102984.00;5056033;28;20099;-80
2022/05/08 05:45:12;;;;;;;12.82;2.88;;;;;;;9.25;75.74;102985.75;5038249;28;20455;-80
2022/05/08 05:47:49;;;;;;;24.90;3.92;;;;;;;9.26;75.62;102988.38;5037880;28;20045;-80
2022/05/08 05:50:15;;;;;;;12.82;2.90;;;;;;;9.30;75.59;102994.47;5039614;28;20029;-80
2022/05/08 05:52:41;;;;;;;16.08;2.83;;;;;;;9.31;75.41;102994.44;5038072;28;20048;-80
2022/05/08 05:55:07;;;;;;;12.68;3.47;;;;;;;9.33;75.19;102991.81;5037273;28;20049;-80
2022/05/08 05:57:33;;;;;;;19.73;2.95;;;;;;;9.35;74.92;102995.31;5054704;28;20033;-80
2022/05/08 05:59:59;;;;;;;13.23;3.33;;;;;;;9.37;74.37;102993.59;5037693;28;20292;-80
2022/05/08 06:02:24;;;;;;;22.73;3.80;;;;;;;9.40;74.73;102994.47;5037163;28;20040;-80
2022/05/08 06:04:50;;;;;;;16.17;3.47;;;;;;;9.43;74.32;102992.72;5064748;28;20236;-80
2022/05/08 06:07:15;;;;;;;16.63;2.88;;;;;;;9.43;74.07;102990.97;5051232;28;20032;-80
2022/05/08 06:09:40;;;;;;;15.27;3.17;;;;;;;9.47;74.18;102994.44;5028861;28;20047;-80
2022/05/08 06:12:06;;;;;;;12.02;2.85;;;;;;;9.55;74.64;102997.91;5071507;28;20032;-80
2022/05/08 06:14:31;;;;;;;18.15;3.35;;;;;;;9.58;74.01;103003.13;5040362;28;20028;-80
2022/05/08 06:16:57;;;;;;;20.10;4.43;;;;;;;9.61;73.82;103008.38;5041010;28;20040;-80
2022/05/08 06:19:23;;;;;;;10.57;2.70;;;;;;;9.61;73.74;103005.75;5074921;28;20036;-80
2022/05/08 06:21:48;;;;;;;17.63;2.88;;;;;;;9.66;74.04;103009.22;5057325;28;20044;-80
2022/05/08 06:24:13;;;;;;;21.25;3.38;;;;;;;9.71;73.65;103010.06;5057212;28;20040;-80
2022/05/08 06:26:39;;;;;;;13.88;3.60;;;;;;;9.70;73.45;103007.47;5057459;28;20037;-80
2022/05/08 06:29:04;;;;;;;16.92;2.60;;;;;;;9.72;73.50;103011.81;5057505;28;20146;-80
2022/05/08 06:31:30;;;;;;;14.77;3.35;;;;;;;9.76;73.21;103010.94;5056774;28;20044;-80
2022/05/08 06:33:56;;;;;;;15.40;3.17;;;;;;;9.78;72.54;103019.66;5053779;28;20114;-80
2022/05/08 06:36:22;;;;;;;16.27;3.10;;;;;;;9.78;72.90;103011.78;5073047;28;20041;-80
2022/05/08 06:38:47;;;;;;;12.18;2.60;;;;;;;9.78;72.60;103017.03;5049900;28;20044;-81
2022/05/08 06:41:13;;;;;;;19.63;2.97;;;;;;;9.83;73.09;103018.78;5054034;28;20032;-81
2022/05/08 06:43:40;;;;;;;19.25;3.15;;;;;;;9.84;72.29;103021.41;5053358;28;20039;-80
2022/05/08 06:46:07;;;;;;;15.00;2.55;;;;;;;9.83;72.18;103024.03;5053297;28;20098;-80
2022/05/08 06:48:32;;;;;;;21.17;3.92;;;;;;;9.80;71.62;103023.16;5043617;28;20387;-80
2022/05/08 06:50:58;;;;;;;13.90;2.88;;;;;;;9.83;71.94;103032.72;5072397;28;20229;-80
2022/05/08 06:53:23;;;;;;;19.65;2.63;;;;;;;9.86;72.03;103024.00;5055158;28;20032;-81
2022/05/08 06:55:49;;;;;;;20.23;3.30;;;;;;;9.90;72.08;103030.97;5041672;28;20036;-81
2022/05/08 06:58:16;;;;;;;14.13;2.72;;;;;;;9.92;71.81;103035.31;5062913;28;20368;-83
2022/05/08 07:03:26;;;;;;;16.85;3.45;;;;;;;9.98;71.34;103034.44;5076044;28;20169;-81
2022/05/08 07:05:51;;;;;;;12.98;2.55;;;;;;;9.99;71.57;103033.56;5062763;28;20401;-80
2022/05/08 07:08:17;;;;;;;14.32;2.90;;;;;;;9.99;71.12;103030.94;5068096;28;20256;-81
2022/05/08 07:10:43;;;;;;;12.15;2.63;;;;;;;10.04;71.24;103030.91;5063902;28;20036;-81
2022/05/08 07:13:08;;;;;;;12.95;2.65;;;;;;;10.08;71.47;103035.28;5027488;28;20447;-81
2022/05/08 07:15:33;;;;;;;14.93;2.85;;;;;;;10.13;71.12;103038.75;5077845;28;20067;-81
2022/05/08 07:17:59;;;;;;;19.73;3.08;;;;;;;10.13;71.14;103039.63;5060806;28;20055;-81
2022/05/08 07:20:24;;;;;;;17.70;3.03;;;;;;;10.14;70.87;103041.34;5042981;28;20028;-81
2022/05/08 07:22:49;;;;;;;16.35;2.25;;;;;;;10.16;70.91;103034.38;5060393;28;20051;-81
2022/05/08 07:25:15;;;;;;;14.68;2.78;;;;;;;10.19;70.82;103047.44;5060253;28;20375;-81
2022/05/08 07:27:42;;;;;;;12.70;2.65;;;;;;;10.22;70.35;103053.56;5043605;28;20036;-81
2022/05/08 07:30:08;;;;;;;11.65;2.85;;;;;;;10.16;69.99;103042.22;5078178;28;20146;-81
2022/05/08 07:32:34;;;;;;;14.77;2.53;;;;;;;10.19;70.61;103054.44;5077765;28;20061;-81
2022/05/08 07:37:45;;;;;;;15.68;2.78;;;;;;;10.23;70.30;103052.69;5032378;28;20055;-81
2022/05/08 07:40:12;;;;;;;12.90;2.22;;;;;;;10.24;70.16;103054.41;5078449;28;20054;-83
2022/05/08 07:42:38;;;;;;;16.98;2.67;;;;;;;10.28;70.29;103057.03;5074019;28;20036;-81
2022/05/08 07:45:04;;;;;;;19.23;2.97;;;;;;;10.33;69.96;103052.69;5043359;28;20247;-81
2022/05/08 07:47:30;;;;;;;15.52;3.50;;;;;;;10.37;69.93;103056.16;5042292;28;20040;-81
2022/05/08 07:49:55;;;;;;;16.08;3.20;;;;;;;10.43;69.84;103050.88;5077204;28;20032;-81
2022/05/08 07:52:21;;;;;;;14.48;3.03;;;;;;;10.44;69.90;103059.59;5076697;28;20071;-82
2022/05/08 07:54:46;;;;;;;7.28;2.20;;;;;;;10.47;69.38;103057.84;5077482;28;20366;-81
2022/05/08 07:57:12;;;;;;;10.75;3.03;;;;;;;10.50;69.17;103055.22;5078509;28;20037;-81
2022/05/08 07:59:38;;;;;;;9.85;2.50;;;;;;;10.53;69.36;103055.22;5059638;28;20154;-81
2022/05/08 08:02:03;;;;;;;16.83;2.95;;;;;;;10.59;69.08;103067.41;5078701;28;20251;-82
2022/05/08 08:04:29;;;;;;;11.68;3.33;;;;;;;10.62;69.14;103066.50;5060087;28;20300;-81
2022/05/08 08:06:55;;;;;;;10.80;2.65;;;;;;;10.65;69.36;103062.13;5059900;28;20317;-81
2022/05/08 08:09:20;;;;;;;10.95;2.40;;;;;;;10.76;69.45;103070.78;5077164;28;20044;-81
2022/05/08 08:11:46;;;;;;;9.63;2.33;;;;;;;10.80;68.68;103062.91;5078437;28;20512;-81
2022/05/08 08:14:12;;;;;;;8.43;2.20;;;;;;;10.80;68.59;103068.16;5044294;28;20082;-81
2022/05/08 08:16:37;;;;;;;10.10;2.17;;;;;;;10.80;68.42;103057.66;5024503;28;20370;-81
2022/05/08 08:19:03;;;;;;;12.75;3.17;;;;;;;10.84;68.37;103062.91;5060046;28;20056;-81
2022/05/08 08:21:28;;;;;;;13.45;3.00;;;;;;;10.86;68.44;103055.00;5076879;28;20268;-81
2022/05/08 08:23:54;;;;;;;7.05;2.20;;;;;;;10.91;67.75;103061.09;5077636;28;20071;-81
2022/05/08 08:26:19;;;;;;;11.15;2.38;;;;;;;11.01;67.49;103051.41;5042433;28;20033;-81
2022/05/08 08:28:45;;;;;;;6.63;2.35;;;;;;;11.06;67.18;103057.47;5059276;28;20036;-81
2022/05/08 08:31:10;;;;;;;15.48;3.15;;;;;;;11.12;66.91;103068.81;5077657;28;20039;-81
2022/05/08 08:33:37;;;;;;;7.90;2.30;;;;;;;11.14;66.95;103060.94;5058395;28;20204;-82
2022/05/08 08:36:03;;;;;;;10.00;2.78;;;;;;;11.18;66.96;103062.63;5066581;28;20238;-81
2022/05/08 08:38:28;;;;;;;14.90;2.88;;;;;;;11.24;66.63;103065.22;5025779;28;20043;-81
2022/05/08 08:40:56;;;;;;;9.13;2.80;;;;;;;11.26;66.95;103058.22;5026491;28;20232;-81
2022/05/08 08:43:22;;;;;;;18.00;3.33;;;;;;;11.34;66.59;103060.78;5077927;28;20266;-81
2022/05/08 08:48:38;;;;;;;9.80;2.50;;;;;;;11.38;66.81;103059.00;5077834;28;20043;-82
2022/05/08 08:51:04;;;;;;;11.23;2.35;;;;;;;11.43;65.08;103059.81;5061575;28;20067;-81
2022/05/08 08:53:29;;;;;;;10.43;2.65;;;;;;;11.41;64.90;103053.72;5060043;28;20032;-81
2022/05/08 08:55:57;;;;;;;14.93;2.50;;;;;;;11.44;65.37;103062.44;5078450;28;20040;-81
2022/05/08 08:58:22;;;;;;;11.52;2.92;;;;;;;11.41;65.60;103061.59;5059983;28;20056;-81
2022/05/08 09:00:49;;;;;;;9.25;2.30;;;;;;;11.44;66.25;103057.19;5060537;28;20039;-82
2022/05/08 09:03:33;;;;;;;14.70;3.20;;;;;;;11.58;64.95;103059.66;5059991;28;20285;-82
2022/05/08 09:06:02;;;;;;;7.65;2.03;;;;;;;11.59;64.96;103056.19;5059708;28;20279;-82
2022/05/08 09:08:29;;;;;;;10.38;2.60;;;;;;;11.61;65.23;103058.78;5059772;28;20047;-81
2022/05/08 09:10:58;;;;;;;13.95;2.40;;;;;;;11.65;65.45;103050.84;5078136;28;20067;-81
2022/05/08 09:13:26;;;;;;;7.73;2.50;;;;;;;11.76;64.84;103058.63;5043184;28;20033;-81
2022/05/08 09:16:04;;;;;;;8.15;2.10;;;;;;;11.83;65.09;103059.44;5078104;28;20039;-82
2022/05/08 09:18:29;;;;;;;13.63;2.20;;;;;;;11.88;65.00;103052.38;5059606;28;20040;-81
2022/05/08 09:21:54;;;;;;;8.48;2.03;;;;;;;11.95;63.91;103051.47;5043541;28;20274;-82
2022/05/08 09:23:41;;;;;;;15.82;2.85;;;;;;;11.97;63.81;103047.06;5077502;28;20028;-81
2022/05/08 09:26:08;;;;;;;14.95;2.53;;;;;;;12.07;64.30;103051.31;5060029;28;20056;-81
2022/05/08 09:28:42;;;;;;;9.00;2.20;;;;;;;12.05;64.12;103054.84;5059170;28;20051;-82
2022/05/08 09:31:12;;;;;;;8.05;2.05;;;;;;;12.08;63.85;103058.31;5077757;28;20024;-81
2022/05/08 09:33:45;;;;;;;9.07;2.75;;;;;;;12.08;64.27;103055.69;5077370;28;20347;-81
2022/05/08 09:36:22;;;;;;;11.63;2.33;;;;;;;12.12;64.62;103048.63;5066225;28;20047;-81
2022/05/08 09:38:49;;;;;;;9.25;2.13;;;;;;;12.24;63.97;103048.50;5077670;28;20429;-82
2022/05/08 09:41:17;;;;;;;13.98;3.40;;;;;;;12.33;63.63;103049.25;5077330;28;20040;-81
2022/05/08 09:43:42;;;;;;;6.97;2.15;;;;;;;12.31;63.50;103051.03;5077437;28;20060;-82
2022/05/08 09:46:09;;;;;;;6.60;1.88;;;;;;;12.33;63.68;103046.63;5077590;28;20332;-81
2022/05/08 09:48:34;;;;;;;9.43;2.63;;;;;;;12.37;63.89;103045.69;5058823;28;20228;-81
2022/05/08 09:51:03;;;;;;;9.68;2.15;;;;;;;12.41;64.10;103043.00;5059515;28;20064;-81
2022/05/08 09:53:29;;;;;;;10.75;2.28;;;;;;;12.43;63.25;103043.88;5076671;28;20040;-80
2022/05/08 09:55:57;;;;;;;9.88;2.15;;;;;;;12.45;63.06;103042.06;5077044;28;20032;-83
2022/05/08 09:58:23;;;;;;;4.55;1.75;;;;;;;12.46;63.03;103046.47;5057860;28;20127;-81
2022/05/08 10:00:51;;;;;;;11.02;2.38;;;;;;;12.48;62.65;103042.03;5077352;28;20043;-81
2022/05/08 10:03:17;;;;;;;9.02;1.73;;;;;;;12.54;62.24;103046.34;5057648;28;20044;-81
2022/05/08 10:05:42;;;;;;;10.68;2.38;;;;;;;12.53;62.30;103041.97;5076840;28;20064;-81
2022/05/08 10:08:08;;;;;;;9.27;1.80;;;;;;;12.63;61.83;103053.25;5042871;28;20028;-81
2022/05/08 10:16:48;;;;;;;7.68;2.13;;;;;;;12.72;61.39;103032.06;5076425;28;20031;-81
2022/05/08 10:19:19;;;;;;;6.20;2.03;;;;;;;12.75;60.98;103037.28;5077493;28;20239;-82
2022/05/08 10:21:57;;;;;;;10.07;2.03;;;;;;;12.78;60.79;103031.97;5059806;28;20381;-82
2022/05/08 10:24:28;;;;;;;9.48;2.15;;;;;;;12.86;60.56;103032.75;5077188;28;20320;-81
2022/05/08 10:27:16;;;;;;;3.72;1.60;;;;;;;12.85;59.19;103032.75;5060048;28;20024;-82
2022/05/08 10:29:48;;;;;;;5.70;1.87;;;;;;;12.83;59.71;103038.03;5077659;28;20109;-81
2022/05/08 10:32:34;;;;;;;8.85;2.00;;;;;;;12.84;60.34;103029.28;5059451;28;20310;-82
2022/05/08 10:35:11;;;;;;;5.97;1.85;;;;;;;12.86;59.37;103026.59;5076570;28;20029;-81
2022/05/08 10:37:38;;;;;;;6.15;1.75;;;;;;;12.87;58.93;103025.72;5057822;28;20028;-81
2022/05/08 10:40:24;;;;;;;6.25;1.80;;;;;;;12.87;59.67;103020.44;5077686;28;20378;-81
2022/05/08 10:42:49;;;;;;;6.10;1.88;;;;;;;12.92;59.97;103031.78;5066496;28;20040;-81
2022/05/08 10:45:33;;;;;;;6.88;1.90;;;;;;;12.94;59.42;103032.63;5077137;28;20047;-82
2022/05/08 10:48:08;;;;;;;9.23;1.90;;;;;;;12.95;59.46;103036.09;5077864;28;20186;-81
2022/05/08 10:50:40;;;;;;;5.57;1.63;;;;;;;12.98;59.66;103036.06;5058096;28;20230;-81
2022/05/08 10:53:06;;;;;;;9.48;1.95;;;;;;;13.05;58.77;103035.06;5077644;28;20028;-81
2022/05/08 10:55:32;;;;;;;5.05;1.67;;;;;;;13.10;58.37;103029.72;5055816;28;20033;-81
2022/05/08 10:57:58;;;;;;;3.55;1.48;;;;;;;13.09;58.67;103026.22;5060154;28;20037;-81
2022/05/08 11:00:25;;;;;;;3.38;2.03;;;;;;;13.10;58.28;103030.63;5078091;28;20044;-82
2022/05/08 11:02:55;;;;;;;8.88;1.80;;;;;;;13.11;58.07;103028.84;5078149;28;20060;-81
2022/05/08 11:05:26;;;;;;;8.23;1.33;;;;;;;13.12;59.05;103035.84;5046963;28;20055;-81
2022/05/08 11:08:00;;;;;;;6.50;1.45;;;;;;;13.11;58.62;103029.69;5077621;28;20060;-81
2022/05/08 11:10:25;;;;;;;6.82;1.70;;;;;;;13.16;58.46;103019.97;5058715;28;20088;-82
2022/05/08 11:12:53;;;;;;;6.95;1.85;;;;;;;13.25;57.41;103027.72;5077601;28;20549;-81
2022/05/08 11:15:19;;;;;;;4.50;1.40;;;;;;;13.29;58.06;103017.16;5058894;28;20089;-81
2022/05/08 11:17:45;;;;;;;7.97;1.48;;;;;;;13.34;57.54;103026.72;5041837;28;20329;-81
2022/05/08 11:20:15;;;;;;;5.07;1.35;;;;;;;13.32;57.63;103025.03;5076572;28;20032;-81
2022/05/08 11:22:54;;;;;;;7.25;1.90;;;;;;;13.27;56.69;103029.47;5058067;28;20052;-81
2022/05/08 11:25:19;;;;;;;7.50;1.23;;;;;;;13.31;57.52;103029.41;5041467;28;20031;-81
2022/05/08 11:27:52;;;;;;;3.70;1.80;;;;;;;13.40;57.22;103023.13;5038673;28;20217;-81
2022/05/08 11:30:35;;;;;;;3.78;1.50;;;;;;;13.49;56.81;103020.31;5053356;28;20247;-82
2022/05/08 11:36:06;;;;;;;6.30;1.88;;;;;;;13.42;56.06;103019.56;5067077;28;20318;-81
2022/05/08 11:38:31;;;;;;;4.00;1.40;;;;;;;13.43;56.42;103015.16;5061475;28;20259;-81
2022/05/08 11:40:58;;;;;;;3.40;1.40;;;;;;;13.52;55.99;103001.84;5061791;28;20020;-81
2022/05/08 11:43:37;;;;;;;4.72;1.58;;;;;;;13.56;55.56;103006.16;5061520;28;20498;-82
2022/05/08 11:46:03;;;;;;;6.85;1.75;;;;;;;13.56;55.88;103005.28;5068519;28;20082;-82
2022/05/08 11:48:40;;;;;;;4.90;1.38;;;;;;;13.56;56.03;103000.03;5079236;28;20307;-82